createdAt,value
2019-01-03T00:01:04.524Z,96.50
2019-01-03T00:03:52.974Z,95.90
2019-01-03T00:06:54.737Z,95.90
2019-01-03T00:09:44.108Z,95.40
2019-01-03T00:12:39.622Z,95.20
2019-01-03T00:15:27.661Z,95.00
2019-01-03T00:18:17.033Z,95.00
2019-01-03T00:21:12.548Z,94.70
2019-01-03T00:24:02.524Z,94.50
2019-01-03T00:26:53.705Z,94.80
2019-01-03T00:29:59.913Z,94.50
2019-01-03T00:32:44.574Z,94.50
2019-01-03T00:35:32.717Z,94.40
2019-01-03T00:38:25.160Z,94.80
2019-01-03T00:41:29.480Z,94.90
2019-01-03T00:44:21.723Z,95.30
2019-01-03T00:47:09.965Z,95.20
2019-01-03T00:49:56.366Z,95.00
2019-01-03T00:52:51.164Z,95.30
2019-01-03T00:55:43.404Z,95.30
2019-01-03T00:58:44.757Z,95.60
2019-01-03T01:02:22.460Z,95.50
2019-01-03T01:05:30.569Z,95.90
2019-01-03T01:08:32.332Z,95.80
2019-01-03T01:11:35.322Z,95.00
2019-01-03T01:14:35.243Z,94.10
2019-01-03T01:17:23.280Z,94.30
2019-01-03T01:20:09.580Z,94.70
2019-01-03T01:22:57.519Z,95.10
2019-01-03T01:25:45.454Z,95.20
2019-01-03T01:28:33.801Z,94.80
2019-01-03T01:31:21.944Z,95.30
2019-01-03T01:34:09.983Z,96.00
2019-01-03T01:36:58.126Z,96.20
2019-01-03T01:39:49.033Z,96.50
2019-01-03T01:42:37.380Z,96.70
2019-01-03T01:45:38.733Z,96.20
2019-01-03T01:48:33.837Z,94.90
2019-01-03T01:51:26.282Z,94.30
2019-01-03T01:54:15.951Z,94.00
2019-01-03T01:57:02.669Z,94.00
2019-01-03T01:59:50.607Z,94.40
2019-01-03T02:02:39.977Z,94.80
2019-01-03T02:05:28.120Z,95.20
2019-01-03T02:08:16.266Z,95.50
2019-01-03T02:11:04.302Z,95.00
2019-01-03T02:13:52.348Z,94.50
2019-01-03T02:16:41.816Z,94.70
2019-01-03T02:19:30.060Z,94.50
2019-01-03T02:22:31.721Z,94.80
2019-01-03T02:25:24.162Z,95.40
2019-01-03T02:28:19.372Z,95.30
2019-01-03T02:31:07.621Z,95.40
2019-01-03T02:34:15.421Z,94.60
2019-01-03T02:37:03.663Z,93.80
2019-01-03T02:40:05.220Z,94.10
2019-01-03T02:43:06.573Z,94.50
2019-01-03T02:45:49.491Z,94.00
2019-01-03T02:48:38.966Z,94.10
2019-01-03T02:51:37.246Z,93.30
2019-01-03T02:54:40.328Z,93.60
2019-01-03T02:57:31.349Z,93.80
2019-01-03T03:00:17.137Z,93.80
2019-01-03T03:03:24.939Z,93.80
2019-01-03T03:06:10.406Z,94.00
2019-01-03T03:09:09.006Z,94.60
2019-01-03T03:11:57.046Z,94.30
2019-01-03T03:14:49.387Z,94.20
2019-01-03T03:17:37.836Z,94.10
2019-01-03T03:20:27.414Z,94.40
2019-01-03T03:23:28.867Z,94.60
2019-01-03T03:26:25.406Z,94.40
2019-01-03T03:29:14.777Z,94.40
2019-01-03T03:32:04.252Z,92.90
2019-01-03T03:34:59.356Z,93.30
2019-01-03T03:37:57.637Z,93.20
2019-01-03T03:40:56.018Z,92.50
2019-01-03T03:43:45.390Z,93.00
2019-01-03T03:46:37.629Z,93.20
2019-01-03T03:49:36.114Z,93.40
2019-01-03T03:52:44.019Z,94.10
2019-01-03T03:55:45.784Z,93.90
2019-01-03T03:58:38.123Z,94.10
2019-01-03T04:01:26.064Z,94.90
2019-01-03T04:04:18.301Z,95.30
2019-01-03T04:07:13.403Z,95.80
2019-01-03T04:10:14.959Z,96.20
2019-01-03T04:13:07.798Z,96.80
2019-01-03T04:15:49.084Z,97.20
2019-01-03T04:18:41.849Z,97.30
2019-01-03T04:21:34.288Z,97.90
2019-01-03T04:24:36.153Z,98.10
2019-01-03T04:27:25.522Z,98.90
2019-01-03T04:30:30.153Z,99.00
2019-01-03T04:33:15.324Z,99.60
2019-01-03T04:36:04.695Z,99.90
2019-01-03T04:38:54.067Z,99.90
2019-01-03T04:41:42.414Z,99.90
2019-01-03T04:44:37.725Z,99.90
2019-01-03T04:47:39.280Z,99.90
2019-01-03T04:50:27.218Z,99.90
2019-01-03T04:53:15.465Z,99.90
2019-01-03T04:56:04.936Z,99.90
2019-01-03T04:58:57.283Z,99.90
2019-01-03T05:02:06.823Z,99.90
2019-01-03T05:04:59.367Z,99.90
2019-01-03T05:07:48.738Z,99.90
2019-01-03T05:10:38.109Z,99.90
2019-01-03T05:13:26.252Z,99.90
2019-01-03T05:16:14.292Z,99.90
2019-01-03T05:19:19.024Z,99.90
2019-01-03T05:22:07.063Z,99.90
2019-01-03T05:25:02.680Z,99.90
2019-01-03T05:27:57.888Z,99.90
2019-01-03T05:30:47.465Z,99.90
2019-01-03T05:33:36.017Z,99.90
2019-01-03T05:36:34.502Z,99.90
2019-01-03T05:39:24.693Z,99.90
2019-01-03T05:42:12.736Z,99.90
2019-01-03T05:45:02.121Z,99.90
2019-01-03T05:47:50.150Z,99.90
2019-01-03T05:50:45.660Z,99.90
2019-01-03T05:53:37.897Z,99.90
2019-01-03T05:56:27.269Z,99.90
2019-01-03T05:59:35.071Z,99.90
2019-01-03T06:02:23.007Z,99.90
2019-01-03T06:05:10.845Z,99.90
2019-01-03T06:08:08.202Z,99.90
2019-01-03T06:10:49.485Z,99.90
2019-01-03T06:13:44.793Z,99.90
2019-01-03T06:16:40.207Z,99.90
2019-01-03T06:19:38.692Z,99.90
2019-01-03T06:22:40.352Z,99.90
2019-01-03T06:25:42.014Z,99.90
2019-01-03T06:28:34.455Z,99.90
2019-01-03T06:31:39.389Z,99.90
2019-01-03T06:34:40.949Z,99.90
2019-01-03T06:37:28.986Z,99.90
2019-01-03T06:40:24.195Z,99.90
2019-01-03T06:43:19.093Z,99.90
2019-01-03T06:46:14.508Z,99.90
2019-01-03T06:49:15.245Z,99.90
2019-01-03T06:52:16.909Z,99.90
2019-01-03T06:55:09.041Z,99.90
2019-01-03T06:57:57.388Z,99.90
2019-01-03T07:00:55.771Z,99.90
2019-01-03T07:03:45.244Z,99.90
2019-01-03T07:06:49.668Z,99.90
2019-01-03T07:09:39.039Z,99.90
2019-01-03T07:12:27.594Z,99.90
2019-01-03T07:15:29.968Z,99.90
2019-01-03T07:18:14.525Z,99.90
2019-01-03T07:21:03.999Z,99.90
2019-01-03T07:24:02.688Z,99.90
2019-01-03T07:26:50.626Z,99.90
2019-01-03T07:29:39.997Z,99.90
2019-01-03T07:32:29.371Z,99.90
2019-01-03T07:35:18.228Z,99.90
2019-01-03T07:38:07.605Z,99.90
2019-01-03T07:40:55.946Z,99.90
2019-01-03T07:43:57.401Z,99.90
2019-01-03T07:46:55.783Z,99.90
2019-01-03T07:49:44.028Z,99.90
2019-01-03T07:52:32.068Z,99.90
2019-01-03T07:55:20.108Z,99.90
2019-01-03T07:58:12.144Z,99.90
2019-01-03T08:01:04.278Z,99.90
2019-01-03T08:04:02.762Z,99.90
2019-01-03T08:06:50.701Z,99.90
2019-01-03T08:09:43.144Z,99.90
2019-01-03T08:12:50.844Z,99.90
2019-01-03T08:15:35.802Z,99.90
2019-01-03T08:18:27.949Z,99.90
2019-01-03T08:21:15.988Z,99.90
2019-01-03T08:24:08.540Z,99.90
2019-01-03T08:26:58.612Z,99.90
2019-01-03T08:29:47.993Z,99.90
2019-01-03T08:32:43.203Z,99.90
2019-01-03T08:35:48.139Z,99.90
2019-01-03T08:38:37.922Z,99.90
2019-01-03T08:41:25.855Z,99.90
2019-01-03T08:44:17.158Z,99.90
2019-01-03T08:47:05.316Z,99.90
2019-01-03T08:49:50.590Z,99.90
2019-01-03T08:52:55.617Z,99.90
2019-01-03T08:56:00.358Z,99.90
2019-01-03T08:59:04.785Z,99.90
2019-01-03T09:01:54.153Z,99.90
2019-01-03T09:04:52.844Z,99.90
2019-01-03T09:07:51.022Z,99.90
2019-01-03T09:10:40.392Z,99.90
2019-01-03T09:13:32.530Z,99.90
2019-01-03T09:16:27.737Z,99.90
2019-01-03T09:19:16.189Z,99.90
2019-01-03T09:22:23.785Z,99.90
2019-01-03T09:25:15.511Z,99.90
2019-01-03T09:28:13.894Z,99.90
2019-01-03T09:31:01.830Z,99.90
2019-01-03T09:34:06.153Z,99.90
2019-01-03T09:36:52.350Z,99.90
2019-01-03T09:39:41.823Z,99.90
2019-01-03T09:42:49.524Z,99.90
2019-01-03T09:45:19.942Z,99.90
2019-01-03T09:47:50.377Z,98.70
2019-01-03T09:50:20.794Z,97.60
2019-01-03T09:52:51.231Z,96.90
2019-01-03T09:55:21.649Z,94.40
2019-01-03T09:57:52.085Z,93.10
2019-01-03T10:00:22.500Z,90.60
2019-01-03T10:02:52.926Z,86.90
2019-01-03T10:05:23.354Z,81.10
2019-01-03T10:07:53.781Z,77.00
2019-01-03T10:10:24.371Z,75.50
2019-01-03T10:12:54.862Z,72.30
2019-01-03T10:15:25.269Z,75.90
2019-01-03T10:17:55.912Z,76.20
2019-01-03T10:20:26.401Z,74.60
2019-01-03T10:22:56.854Z,75.10
2019-01-03T10:25:27.285Z,73.30
2019-01-03T10:27:57.711Z,72.30
2019-01-03T10:30:28.138Z,69.70
2019-01-03T10:32:58.561Z,68.90
2019-01-03T10:35:29.001Z,67.20
2019-01-03T10:37:59.725Z,65.30
2019-01-03T10:40:30.154Z,61.80
2019-01-03T10:43:00.634Z,60.20
2019-01-03T10:45:31.110Z,60.00
2019-01-03T10:48:01.547Z,60.00
2019-01-03T10:50:31.962Z,57.80
2019-01-03T10:53:02.390Z,56.20
2019-01-03T10:55:32.817Z,54.40
2019-01-03T10:58:03.254Z,50.60
2019-01-03T11:00:33.670Z,45.30
2019-01-03T11:03:04.098Z,42.50
2019-01-03T11:05:34.525Z,39.70
2019-01-03T11:08:04.954Z,39.30
2019-01-03T11:10:35.379Z,38.80
2019-01-03T11:13:05.806Z,37.60
2019-01-03T11:15:36.284Z,36.70
2019-01-03T11:18:06.762Z,36.90
2019-01-03T11:20:37.406Z,37.30
2019-01-03T11:23:08.140Z,37.20
2019-01-03T11:25:38.554Z,36.50
2019-01-03T11:28:08.981Z,36.50
2019-01-03T11:30:39.421Z,35.90
2019-01-03T11:33:09.839Z,36.00
2019-01-03T11:35:40.262Z,34.20
2019-01-03T11:38:11.013Z,34.70
2019-01-03T11:40:41.427Z,35.90
2019-01-03T11:43:11.862Z,36.30
2019-01-03T11:45:42.334Z,34.10
2019-01-03T11:48:12.805Z,33.80
2019-01-03T11:50:43.245Z,31.90
2019-01-03T11:53:13.673Z,31.30
2019-01-03T11:55:44.090Z,30.80
2019-01-03T11:58:14.514Z,29.60
2019-01-03T12:00:44.943Z,28.40
2019-01-03T12:03:15.368Z,27.90
2019-01-03T12:05:45.793Z,27.70
2019-01-03T12:08:16.234Z,28.10
2019-01-03T12:10:46.651Z,27.90
2019-01-03T12:13:17.092Z,27.70
2019-01-03T12:15:47.506Z,27.40
2019-01-03T12:18:17.986Z,28.00
2019-01-03T12:20:48.489Z,28.00
2019-01-03T12:23:19.207Z,27.20
2019-01-03T12:25:49.838Z,26.30
2019-01-03T12:28:20.254Z,24.70
2019-01-03T12:30:50.781Z,24.80
2019-01-03T12:33:21.212Z,24.20
2019-01-03T12:35:51.738Z,25.10
2019-01-03T12:38:22.370Z,23.70
2019-01-03T12:40:52.799Z,24.20
2019-01-03T12:43:23.236Z,24.50
2019-01-03T12:45:53.669Z,24.90
2019-01-03T12:48:24.145Z,24.00
2019-01-03T12:50:54.611Z,24.40
2019-01-03T12:53:25.035Z,24.00
2019-01-03T12:55:55.461Z,23.90
2019-01-03T12:58:25.910Z,24.00
2019-01-03T13:00:56.319Z,24.80
2019-01-03T13:03:26.754Z,25.70
2019-01-03T13:05:57.180Z,26.90
2019-01-03T13:08:27.597Z,27.60
2019-01-03T13:10:58.241Z,27.40
2019-01-03T13:13:28.757Z,27.40
2019-01-03T13:15:59.187Z,26.70
2019-01-03T13:18:29.718Z,26.50
2019-01-03T13:21:00.195Z,27.10
2019-01-03T13:23:30.707Z,27.40
2019-01-03T13:26:08.062Z,26.80
2019-01-03T13:28:38.489Z,25.30
2019-01-03T13:31:08.913Z,24.70
2019-01-03T13:33:39.342Z,24.40
2019-01-03T13:36:10.498Z,22.90
2019-01-03T13:38:40.914Z,22.80
2019-01-03T13:41:11.338Z,23.10
2019-01-03T13:43:41.779Z,22.80
2019-01-03T13:46:12.194Z,23.50
2019-01-03T13:48:42.634Z,23.70
2019-01-03T13:51:13.153Z,23.40
2019-01-03T13:53:43.600Z,25.60
2019-01-03T13:56:14.003Z,28.50
2019-01-03T13:58:44.429Z,31.20
2019-01-03T14:01:14.858Z,33.80
2019-01-03T14:03:45.297Z,33.30
2019-01-03T14:06:15.725Z,31.10
2019-01-03T14:08:46.138Z,29.40
2019-01-03T14:11:16.783Z,27.90
2019-01-03T14:13:47.209Z,27.40
2019-01-03T14:16:17.622Z,28.00
2019-01-03T14:18:48.052Z,31.00
2019-01-03T14:21:18.511Z,33.20
2019-01-03T14:23:49.126Z,35.50
2019-01-03T14:26:19.540Z,38.20
2019-01-03T14:28:49.975Z,40.10
2019-01-03T14:31:20.614Z,42.20
2019-01-03T14:33:51.125Z,43.70
2019-01-03T14:36:21.555Z,45.70
2019-01-03T14:38:51.982Z,46.40
2019-01-03T14:41:22.417Z,48.10
2019-01-03T14:43:52.934Z,49.00
2019-01-03T14:46:23.374Z,49.90
2019-01-03T14:48:53.803Z,51.10
2019-01-03T14:51:24.231Z,51.70
2019-01-03T14:53:55.738Z,53.00
2019-01-03T14:56:26.212Z,53.00
2019-01-03T14:58:56.639Z,54.00
2019-01-03T15:01:27.050Z,53.60
2019-01-03T15:03:57.478Z,51.70
2019-01-03T15:06:27.908Z,51.10
2019-01-03T15:08:58.333Z,52.00
2019-01-03T15:11:28.758Z,52.10
2019-01-03T15:13:59.190Z,52.80
2019-01-03T15:16:29.845Z,53.90
2019-01-03T15:19:00.247Z,54.20
2019-01-03T15:21:30.714Z,55.20
2019-01-03T15:24:01.323Z,55.70
2019-01-03T15:26:31.735Z,56.90
2019-01-03T15:29:02.159Z,57.70
2019-01-03T15:31:32.804Z,58.80
2019-01-03T15:34:03.536Z,59.40
2019-01-03T15:36:34.153Z,60.70
2019-01-03T15:39:04.993Z,61.90
2019-01-03T15:41:35.421Z,63.60
2019-01-03T15:44:05.857Z,65.30
2019-01-03T15:46:36.593Z,67.30
2019-01-03T15:49:07.006Z,69.20
2019-01-03T15:51:37.434Z,70.20
2019-01-03T15:54:07.864Z,71.60
2019-01-03T15:56:38.593Z,72.70
2019-01-03T15:59:09.023Z,73.80
2019-01-03T16:01:39.451Z,75.00
2019-01-03T16:04:09.887Z,76.20
2019-01-03T16:06:40.304Z,76.80
2019-01-03T16:09:10.729Z,77.90
2019-01-03T16:11:41.171Z,77.80
2019-01-03T16:14:11.582Z,78.50
2019-01-03T16:16:42.010Z,79.70
2019-01-03T16:19:12.439Z,79.70
2019-01-03T16:21:42.867Z,80.70
2019-01-03T16:24:13.318Z,80.90
2019-01-03T16:26:43.965Z,82.30
2019-01-03T16:29:14.354Z,80.70
2019-01-03T16:31:44.778Z,80.70
2019-01-03T16:34:15.216Z,79.80
2019-01-03T16:36:45.747Z,79.80
2019-01-03T16:39:16.161Z,79.50
2019-01-03T16:41:46.601Z,79.80
2019-01-03T16:44:17.134Z,80.30
2019-01-03T16:46:47.546Z,80.60
2019-01-03T16:49:18.095Z,80.90
2019-01-03T16:51:48.808Z,81.20
2019-01-03T16:54:19.261Z,81.80
2019-01-03T16:56:49.672Z,82.40
2019-01-03T16:59:20.251Z,83.00
2019-01-03T17:01:50.725Z,82.80
2019-01-03T17:04:21.150Z,84.20
2019-01-03T17:06:51.578Z,84.00
2019-01-03T17:09:22.017Z,84.80
2019-01-03T17:11:52.636Z,85.70
2019-01-03T17:14:25.122Z,86.40
2019-01-03T17:16:55.614Z,87.50
2019-01-03T17:19:26.065Z,87.50
2019-01-03T17:21:56.506Z,87.70
2019-01-03T17:24:26.974Z,87.80
2019-01-03T17:26:57.667Z,88.40
2019-01-03T17:29:28.300Z,89.10
2019-01-03T17:31:58.726Z,90.00
2019-01-03T17:34:29.142Z,89.90
2019-01-03T17:36:59.580Z,90.10
2019-01-03T17:39:29.995Z,90.20
2019-01-03T17:42:00.434Z,90.30
2019-01-03T17:44:30.862Z,90.40
2019-01-03T17:47:01.285Z,90.50
2019-01-03T17:49:31.701Z,90.40
2019-01-03T17:52:02.449Z,90.70
2019-01-03T17:54:32.873Z,90.40
2019-01-03T17:57:03.304Z,90.90
2019-01-03T17:59:33.718Z,90.50
2019-01-03T18:02:04.407Z,90.60
2019-01-03T18:04:34.878Z,90.80
2019-01-03T18:07:05.306Z,91.00
2019-01-03T18:09:35.735Z,91.00
2019-01-03T18:12:06.171Z,91.50
2019-01-03T18:14:36.585Z,91.80
2019-01-03T18:17:07.209Z,91.90
2019-01-03T18:19:37.656Z,92.00
2019-01-03T18:22:08.082Z,92.20
2019-01-03T18:24:38.530Z,92.10
2019-01-03T18:27:41.818Z,92.00
2019-01-03T18:30:13.506Z,92.20
2019-01-03T18:32:44.348Z,91.90
2019-01-03T18:35:14.830Z,91.70
2019-01-03T18:37:45.257Z,91.60
2019-01-03T18:40:17.162Z,91.40
2019-01-03T18:42:48.611Z,91.40
2019-01-03T18:45:28.609Z,91.00
2019-01-03T18:47:59.037Z,90.80
2019-01-03T18:50:29.679Z,90.90
2019-01-03T18:53:00.097Z,91.00
2019-01-03T18:55:30.522Z,91.00
2019-01-03T18:58:00.949Z,90.90
2019-01-03T19:00:31.374Z,91.00
2019-01-03T19:03:01.802Z,90.90
2019-01-03T19:05:32.297Z,90.80
2019-01-03T19:08:02.774Z,90.80
2019-01-03T19:10:33.187Z,91.20
2019-01-03T19:13:03.625Z,90.40
2019-01-03T19:15:34.041Z,90.50
2019-01-03T19:18:04.469Z,91.00
2019-01-03T19:20:34.893Z,91.10
2019-01-03T19:23:05.322Z,90.30
2019-01-03T19:25:35.749Z,90.10
2019-01-03T19:28:06.174Z,89.50
2019-01-03T19:30:36.634Z,89.20
2019-01-03T19:33:07.245Z,88.50
2019-01-03T19:35:37.714Z,88.80
2019-01-03T19:38:08.190Z,88.50
2019-01-03T19:40:38.617Z,88.70
2019-01-03T19:43:09.042Z,90.00
2019-01-03T19:45:39.482Z,90.00
2019-01-03T19:48:09.898Z,89.70
2019-01-03T19:50:40.541Z,90.00
2019-01-03T19:53:10.969Z,89.40
2019-01-03T19:55:41.501Z,89.80
2019-01-03T19:58:12.117Z,89.50
2019-01-03T20:00:42.549Z,90.20
2019-01-03T20:03:13.511Z,90.50
2019-01-03T20:05:43.922Z,90.70
2019-01-03T20:08:14.432Z,90.00
2019-01-03T20:10:44.872Z,90.40
2019-01-03T20:13:15.308Z,90.30
2019-01-03T20:15:45.836Z,90.60
2019-01-03T20:18:16.472Z,90.80
2019-01-03T20:20:52.819Z,91.20
2019-01-03T20:23:18.950Z,92.00
2019-01-03T20:25:49.374Z,92.40
2019-01-03T20:28:19.804Z,92.90
2019-01-03T20:30:50.268Z,93.40
2019-01-03T20:33:22.921Z,93.80
2019-01-03T20:35:53.836Z,94.50
2019-01-03T20:38:24.331Z,94.80
2019-01-03T20:40:54.842Z,95.10
2019-01-03T20:43:25.244Z,95.50
2019-01-03T20:45:55.674Z,95.90
2019-01-03T20:48:26.727Z,96.40
2019-01-03T20:50:57.673Z,96.90
2019-01-03T20:53:28.179Z,97.40
2019-01-03T20:55:58.606Z,97.70
2019-01-03T20:58:29.034Z,98.00
2019-01-03T21:00:59.461Z,98.10
2019-01-03T21:03:29.878Z,98.30
2019-01-03T21:06:00.314Z,98.50
2019-01-03T21:08:30.742Z,98.70
2019-01-03T21:11:01.209Z,98.80
2019-01-03T21:13:31.802Z,98.90
2019-01-03T21:16:02.225Z,99.20
2019-01-03T21:18:32.654Z,99.40
2019-01-03T21:21:03.081Z,99.60
2019-01-03T21:23:47.435Z,99.70
2019-01-03T21:26:35.842Z,99.90
2019-01-03T21:29:06.313Z,99.90
2019-01-03T21:31:37.046Z,99.90
2019-01-03T21:34:08.489Z,99.90
2019-01-03T21:36:39.026Z,99.90
2019-01-03T21:39:10.170Z,99.90
2019-01-03T21:41:41.110Z,99.90
2019-01-03T21:44:11.536Z,99.90
2019-01-03T21:46:41.953Z,99.90
2019-01-03T21:49:12.493Z,99.90
2019-01-03T21:51:43.012Z,99.90
2019-01-03T21:54:13.438Z,99.90
2019-01-03T21:56:43.876Z,99.90
2019-01-03T21:59:14.293Z,99.90
2019-01-03T22:01:44.733Z,99.90
2019-01-03T22:04:15.156Z,99.90
2019-01-03T22:06:45.584Z,99.90
2019-01-03T22:09:16.001Z,99.90
2019-01-03T22:11:46.426Z,99.90
2019-01-03T22:14:16.987Z,99.90
2019-01-03T22:16:50.466Z,99.90
2019-01-03T22:19:20.892Z,99.90
2019-01-03T22:21:51.310Z,99.90
2019-01-03T22:24:21.737Z,99.90
2019-01-03T22:26:52.265Z,99.90
2019-01-03T22:29:22.694Z,99.90
2019-01-03T22:31:53.429Z,99.90
2019-01-03T22:34:24.174Z,99.90
2019-01-03T22:36:54.803Z,99.90
2019-01-03T22:39:25.333Z,99.90
2019-01-03T22:41:55.760Z,99.90
2019-01-03T22:44:26.251Z,99.90
2019-01-03T22:46:56.715Z,99.90
2019-01-03T22:49:27.134Z,99.90
2019-01-03T22:51:58.492Z,99.90
2019-01-03T22:54:28.918Z,99.90
2019-01-03T22:56:59.735Z,99.90
2019-01-03T22:59:30.180Z,99.90
2019-01-03T23:02:00.701Z,99.90
2019-01-03T23:04:31.126Z,99.90
2019-01-03T23:07:01.554Z,99.90
2019-01-03T23:09:31.981Z,99.90
2019-01-03T23:12:02.422Z,99.90
2019-01-03T23:14:33.870Z,99.90
2019-01-03T23:17:04.708Z,99.90
2019-01-03T23:19:35.122Z,99.90
2019-01-03T23:22:05.550Z,99.90
2019-01-03T23:24:52.053Z,99.90
2019-01-03T23:27:22.565Z,99.90
2019-01-03T23:30:01.930Z,99.90
2019-01-03T23:32:32.386Z,99.90
2019-01-03T23:35:03.040Z,99.90
2019-01-03T23:37:35.111Z,99.90
2019-01-03T23:40:07.387Z,99.90
2019-01-03T23:42:37.900Z,99.90
2019-01-03T23:45:19.137Z,99.90
2019-01-03T23:47:50.632Z,99.90
2019-01-03T23:50:23.779Z,99.90
2019-01-03T23:52:54.375Z,99.90
2019-01-03T23:55:25.911Z,99.90
2019-01-03T23:57:56.378Z,99.90
